This is the latest recevied weather packets stored in our database for station/object KJ7BRE-1. If no packets are shown the sender has not sent any weather packets the latest 10 day(s).
| Time | Temp. | Humidity | Pressure | Rain* | Wind** | Luminosity | Snow |
|---|---|---|---|---|---|---|---|
| 1777500869 | 20° C | 41% | 1015.2 hPa | 0 mm | - | - | - |
| 1777500567 | 20° C | 42% | 1015.6 hPa | 0 mm | - | - | - |
| 1777500266 | 20° C | 42% | 1015.6 hPa | 0 mm | - | - | - |
| 1777499965 | 19.44° C | 43% | 1015.6 hPa | 0 mm | - | - | - |
| 1777499664 | 20° C | 42% | 1015.6 hPa | 0 mm | - | - | - |
| 1777499363 | 19.44° C | 43% | 1015.6 hPa | 0 mm | - | - | - |
| 1777499061 | 19.44° C | 43% | 1015.6 hPa | 0 mm | - | - | - |
| 1777498760 | 19.44° C | 43% | 1015.6 hPa | 0 mm | - | - | - |
| 1777498459 | 19.44° C | 44% | 1015.6 hPa | 0 mm | - | - | - |
| 1777498158 | 20° C | 41% | 1015.6 hPa | 0 mm | - | - | - |
| 1777497856 | 18.89° C | 43% | 1015.9 hPa | 0 mm | - | - | - |
| 1777497555 | 19.44° C | 42% | 1015.9 hPa | 0 mm | - | - | - |
| 1777497254 | 20° C | 42% | 1015.9 hPa | 0 mm | - | - | - |
| 1777496953 | 20° C | 41% | 1015.9 hPa | 0 mm | - | - | - |
| 1777496652 | 20° C | 42% | 1016.3 hPa | 0 mm | - | - | - |
| 1777496350 | 18.89° C | 43% | 1015.9 hPa | 0 mm | - | - | - |
| 1777496049 | 18.89° C | 42% | 1016.3 hPa | 0 mm | - | - | - |
| 1777495748 | 19.44° C | 42% | 1016.3 hPa | 0 mm | - | - | - |
| 1777495447 | 18.89° C | 42% | 1016.3 hPa | 0 mm | - | - | - |
| 1777495146 | 18.33° C | 44% | 1016.3 hPa | 0 mm | - | - | - |
| 1777494844 | 18.33° C | 42% | 1016.3 hPa | 0 mm | - | - | - |
| 1777494543 | 17.78° C | 44% | 1016.3 hPa | 0 mm | - | - | - |
| 1777494242 | 17.78° C | 47% | 1016.3 hPa | 0 mm | - | - | - |
| 1777493941 | 17.78° C | 47% | 1016.6 hPa | 0 mm | - | - | - |
| 1777493640 | 17.22° C | 47% | 1016.6 hPa | 0 mm | - | - | - |
* Rain latest hour (hover to see other rain measurements)
** Current wind speed in m/s (hover to see current wind gust speed)